Aviation Digital Data Service (ADDS)

Output produced by METARs form (1032 UTC 07 December 2016)
found at http://aviationweather.gov/adds/metars/
 
KAGC 070804Z 0708/0806 28009G17KT P6SM OVC015 
     FM071300 26007KT P6SM BKN025 
     FM071500 26008KT P6SM BKN040 
     FM080100 24004KT P6SM BKN110